Time;durP1;ratioP1;P1;durP2;ratioP2;P2;SDS_P1;SDS_P2;PMS_P1;PMS_P2;Temp;Humidity;BMP_temperature;BMP_pressure;BME280_temperature;BME280_humidity;BME280_pressure;Samples;Min_cycle;Max_cycle;Signal;HPM_P1;HPM_P2
2022/06/24 00:02:20;;;;;;;20.90;12.25;;;23.60;99.90;;;;;;5033436;28;20025;-64
2022/06/24 00:04:56;;;;;;;20.98;12.65;;;23.60;99.90;;;;;;5033296;28;20502;-67
2022/06/24 00:07:22;;;;;;;19.27;11.05;;;23.70;99.90;;;;;;5032910;28;20469;-64
2022/06/24 00:09:49;;;;;;;18.20;11.48;;;23.60;99.90;;;;;;5040250;28;20040;-65
2022/06/24 00:12:18;;;;;;;20.60;11.95;;;23.60;99.90;;;;;;5038244;28;20437;-66
2022/06/24 00:14:45;;;;;;;20.58;12.23;;;23.60;99.90;;;;;;5036787;28;20017;-64
2022/06/24 00:17:12;;;;;;;23.50;13.73;;;23.50;99.90;;;;;;5052947;28;20027;-64
2022/06/24 00:19:58;;;;;;;25.52;15.13;;;23.40;99.90;;;;;;5045808;28;20459;-64
2022/06/24 00:22:26;;;;;;;22.83;14.32;;;23.20;99.90;;;;;;5032890;28;20467;-63
2022/06/24 00:25:11;;;;;;;22.20;14.65;;;23.00;99.90;;;;;;5033266;28;20116;-63
2022/06/24 00:27:38;;;;;;;24.55;14.25;;;22.80;99.90;;;;;;5032553;28;20029;-63
2022/06/24 00:30:14;;;;;;;25.88;16.02;;;22.60;99.90;;;;;;5050536;28;20047;-66
2022/06/24 00:32:41;;;;;;;25.52;16.33;;;22.50;99.90;;;;;;5052676;28;20534;-65
2022/06/24 00:35:35;;;;;;;24.45;16.48;;;22.40;99.90;;;;;;5038044;28;20075;-62
2022/06/24 00:38:00;;;;;;;24.00;15.52;;;22.30;99.90;;;;;;5041571;28;20086;-64
2022/06/24 00:40:29;;;;;;;22.83;16.33;;;22.20;99.90;;;;;;5035602;28;20408;-65
2022/06/24 00:42:55;;;;;;;26.95;18.50;;;22.00;99.90;;;;;;5032373;28;20163;-64
2022/06/24 00:45:40;;;;;;;29.23;19.63;;;21.90;99.90;;;;;;5038920;28;20121;-63
2022/06/24 00:48:13;;;;;;;28.55;17.58;;;21.90;99.90;;;;;;5048555;28;20029;-64
2022/06/24 00:50:44;;;;;;;28.02;19.00;;;21.80;99.90;;;;;;5052720;28;20117;-64
2022/06/24 00:53:09;;;;;;;28.15;18.05;;;21.80;99.90;;;;;;5045163;28;20039;-63
2022/06/24 00:55:37;;;;;;;28.25;17.55;;;21.80;99.90;;;;;;5042830;28;20056;-64
2022/06/24 00:58:04;;;;;;;28.40;18.98;;;21.70;99.90;;;;;;5038160;28;20075;-65
2022/06/24 01:00:31;;;;;;;29.13;18.50;;;21.80;99.90;;;;;;5051078;28;20378;-63
2022/06/24 01:03:04;;;;;;;23.38;17.20;;;21.70;99.90;;;;;;5051814;28;20132;-64
2022/06/24 01:05:31;;;;;;;83.75;44.83;;;21.70;99.90;;;;;;5052351;28;20056;-64
2022/06/24 01:07:58;;;;;;;54.28;34.20;;;21.70;99.90;;;;;;5050789;28;20024;-66
2022/06/24 01:10:25;;;;;;;34.60;20.98;;;21.70;99.90;;;;;;5050844;28;20023;-65
2022/06/24 01:12:51;;;;;;;35.03;21.73;;;21.70;99.90;;;;;;5042179;28;20488;-64
2022/06/24 01:15:17;;;;;;;28.95;19.30;;;21.70;99.90;;;;;;5038860;28;20032;-66
2022/06/24 01:17:43;;;;;;;25.92;17.02;;;21.70;99.90;;;;;;5044295;28;20029;-63
2022/06/24 01:20:10;;;;;;;27.13;15.93;;;21.70;99.90;;;;;;5045428;28;20147;-66
2022/06/24 01:22:36;;;;;;;26.67;15.50;;;21.70;99.90;;;;;;5036676;28;20022;-64
2022/06/24 01:25:02;;;;;;;26.15;16.70;;;21.70;99.90;;;;;;5032573;28;20034;-63
2022/06/24 01:27:28;;;;;;;26.38;17.30;;;21.70;99.90;;;;;;5031897;28;20447;-64
2022/06/24 01:29:54;;;;;;;25.38;17.90;;;21.70;99.90;;;;;;5031777;28;20025;-63
2022/06/24 01:32:20;;;;;;;27.65;17.58;;;21.70;99.90;;;;;;5033001;28;20045;-63
2022/06/24 01:34:45;;;;;;;25.60;16.52;;;21.70;99.90;;;;;;5052488;28;20025;-63
2022/06/24 01:37:11;;;;;;;26.63;16.92;;;21.70;99.90;;;;;;5049363;28;20025;-65
2022/06/24 01:39:38;;;;;;;25.13;16.52;;;21.70;99.90;;;;;;5035558;28;20132;-65
2022/06/24 01:42:05;;;;;;;26.95;17.25;;;21.70;99.90;;;;;;5045669;28;20071;-64
2022/06/24 01:44:30;;;;;;;26.08;15.98;;;21.70;99.90;;;;;;5052659;28;20025;-66
2022/06/24 01:46:56;;;;;;;25.30;15.73;;;21.60;99.90;;;;;;5039426;28;20028;-64
2022/06/24 01:49:22;;;;;;;25.40;17.38;;;21.50;99.90;;;;;;5031035;28;20026;-65
2022/06/24 01:51:51;;;;;;;30.58;19.48;;;21.30;99.90;;;;;;5032100;28;20376;-65
2022/06/24 01:54:16;;;;;;;30.45;18.10;;;21.00;99.90;;;;;;5037732;28;20053;-65
2022/06/24 01:56:42;;;;;;;34.05;20.40;;;20.70;99.90;;;;;;5032633;28;20363;-66
2022/06/24 01:59:07;;;;;;;28.58;17.58;;;20.50;99.90;;;;;;5032650;28;20033;-65
2022/06/24 02:01:33;;;;;;;33.45;20.10;;;20.20;99.90;;;;;;5032463;28;20025;-65
2022/06/24 02:03:59;;;;;;;31.60;19.38;;;20.10;99.90;;;;;;5032159;28;20026;-65
2022/06/24 02:06:24;;;;;;;22.20;10.60;;;19.90;99.90;;;;;;5032153;28;20033;-66
2022/06/24 02:08:51;;;;;;;24.83;11.80;;;19.80;99.90;;;;;;5033266;28;20048;-66
2022/06/24 02:14:04;;;;;;;27.10;14.75;;;19.50;99.90;;;;;;5055317;28;20024;-66
2022/06/24 02:16:30;;;;;;;29.27;16.02;;;19.50;99.90;;;;;;5055566;28;20028;-66
2022/06/24 02:18:57;;;;;;;30.00;16.17;;;19.40;99.90;;;;;;5052177;28;20029;-67
2022/06/24 02:21:24;;;;;;;35.05;17.15;;;19.40;99.90;;;;;;5035774;28;20052;-68
2022/06/24 02:23:50;;;;;;;30.70;17.63;;;19.30;99.90;;;;;;5036320;28;20091;-66
2022/06/24 02:26:16;;;;;;;33.03;19.25;;;19.40;99.90;;;;;;5035553;28;20104;-67
2022/06/24 02:28:42;;;;;;;30.40;17.20;;;19.40;99.90;;;;;;5050209;28;20362;-68
2022/06/24 02:31:08;;;;;;;29.90;18.15;;;19.40;99.90;;;;;;5037840;28;20025;-65
2022/06/24 02:33:34;;;;;;;33.97;19.95;;;19.40;99.90;;;;;;5035663;28;20029;-66
2022/06/24 02:35:59;;;;;;;34.15;19.50;;;19.40;99.90;;;;;;5035779;28;20473;-69
2022/06/24 02:38:25;;;;;;;30.52;16.40;;;19.40;99.90;;;;;;5036382;28;20047;-68
2022/06/24 02:40:53;;;;;;;31.27;16.52;;;19.40;99.90;;;;;;5035415;28;20028;-67
2022/06/24 02:43:20;;;;;;;35.80;17.88;;;19.40;99.90;;;;;;5052061;28;20029;-67
2022/06/24 02:45:48;;;;;;;29.27;15.68;;;19.40;99.90;;;;;;5051544;28;20036;-67
2022/06/24 02:48:17;;;;;;;27.58;15.65;;;19.50;99.90;;;;;;5047416;28;20036;-69
2022/06/24 02:50:51;;;;;;;26.83;13.45;;;19.40;99.90;;;;;;5059438;28;20040;-70
2022/06/24 02:53:18;;;;;;;24.10;12.30;;;19.40;99.90;;;;;;5055556;28;20024;-68
2022/06/24 02:55:45;;;;;;;22.17;12.02;;;19.30;99.90;;;;;;5054165;28;20432;-69
2022/06/24 02:58:12;;;;;;;26.65;12.77;;;19.30;99.90;;;;;;5053766;28;20128;-70
2022/06/24 03:00:41;;;;;;;25.65;11.93;;;19.20;99.90;;;;;;5054858;28;20460;-69
2022/06/24 03:03:11;;;;;;;29.40;13.18;;;19.20;99.90;;;;;;5054974;28;20099;-71
2022/06/24 03:05:36;;;;;;;26.42;13.35;;;19.10;99.90;;;;;;5054472;28;20029;-68
2022/06/24 03:08:02;;;;;;;28.73;14.23;;;19.10;99.90;;;;;;5054938;28;20405;-68
2022/06/24 03:10:28;;;;;;;24.65;13.45;;;19.10;99.90;;;;;;5054814;28;20025;-69
2022/06/24 03:12:54;;;;;;;29.73;14.27;;;19.10;99.90;;;;;;5054789;28;20047;-69
2022/06/24 03:15:19;;;;;;;22.20;12.43;;;19.00;99.90;;;;;;5054564;28;20052;-69
2022/06/24 03:17:46;;;;;;;26.05;12.80;;;19.10;99.90;;;;;;5054725;28;20036;-71
2022/06/24 03:20:12;;;;;;;27.52;12.55;;;19.10;99.90;;;;;;5053455;28;20021;-68
2022/06/24 03:22:37;;;;;;;30.02;11.82;;;19.10;99.90;;;;;;5053561;28;20151;-71
2022/06/24 03:25:04;;;;;;;26.75;11.32;;;19.00;99.90;;;;;;5054078;28;20048;-69
2022/06/24 03:27:29;;;;;;;26.35;12.00;;;19.00;99.90;;;;;;5053866;28;20021;-69
2022/06/24 03:29:55;;;;;;;35.75;15.25;;;19.00;99.90;;;;;;5053202;28;20035;-68
2022/06/24 03:32:21;;;;;;;26.75;12.00;;;18.90;99.90;;;;;;5053880;28;20378;-67
2022/06/24 03:34:47;;;;;;;23.77;11.13;;;18.90;99.90;;;;;;5052721;28;20028;-71
2022/06/24 03:37:14;;;;;;;25.90;10.93;;;18.90;99.90;;;;;;5053796;28;20358;-68
2022/06/24 03:39:39;;;;;;;23.30;10.68;;;18.90;99.90;;;;;;5053775;28;20037;-71
2022/06/24 03:42:05;;;;;;;23.13;10.57;;;18.90;99.90;;;;;;5052882;28;20516;-68
2022/06/24 03:44:31;;;;;;;28.35;11.25;;;18.90;99.90;;;;;;5053430;28;20044;-68
2022/06/24 03:46:57;;;;;;;27.88;11.80;;;18.90;99.90;;;;;;5053372;28;20032;-70
2022/06/24 03:49:22;;;;;;;26.67;11.77;;;18.80;99.90;;;;;;5052694;28;20055;-68
2022/06/24 03:51:48;;;;;;;28.63;14.35;;;18.80;99.90;;;;;;5053311;28;20032;-71
2022/06/24 03:54:14;;;;;;;36.40;16.52;;;18.80;99.90;;;;;;5052608;28;20348;-67
2022/06/24 03:56:39;;;;;;;40.25;18.10;;;18.80;99.90;;;;;;5052503;28;20497;-70
2022/06/24 03:59:05;;;;;;;35.15;15.75;;;18.80;99.90;;;;;;5052147;28;20520;-71
2022/06/24 04:01:31;;;;;;;35.58;16.27;;;18.80;99.90;;;;;;5052481;28;20047;-71
2022/06/24 04:03:56;;;;;;;28.45;14.68;;;18.80;99.90;;;;;;5052867;28;20025;-68
2022/06/24 04:06:22;;;;;;;31.50;14.07;;;18.80;99.90;;;;;;5052393;28;20048;-69
2022/06/24 04:08:48;;;;;;;27.27;12.30;;;18.80;99.90;;;;;;5052804;28;20035;-69
2022/06/24 04:11:16;;;;;;;33.03;12.35;;;18.80;99.90;;;;;;5052741;28;20031;-70
2022/06/24 04:13:42;;;;;;;23.33;11.05;;;18.80;99.90;;;;;;5052589;28;20021;-67
2022/06/24 04:16:08;;;;;;;31.10;14.73;;;18.70;99.90;;;;;;5052906;28;20060;-68
2022/06/24 04:18:34;;;;;;;26.17;12.02;;;18.70;99.90;;;;;;5048047;28;20049;-71
2022/06/24 04:21:00;;;;;;;25.25;12.43;;;18.70;99.90;;;;;;5034099;28;20447;-70
2022/06/24 04:23:26;;;;;;;25.85;12.63;;;18.70;99.90;;;;;;5033219;28;20025;-68
2022/06/24 04:25:52;;;;;;;27.58;11.65;;;18.70;99.90;;;;;;5038340;28;20124;-69
2022/06/24 04:28:18;;;;;;;29.73;12.75;;;18.70;99.90;;;;;;5052030;28;20040;-68
2022/06/24 04:30:44;;;;;;;26.35;11.55;;;18.70;99.90;;;;;;5052670;28;20447;-71
2022/06/24 04:33:09;;;;;;;37.40;16.77;;;18.70;99.90;;;;;;5052312;28;20160;-68
2022/06/24 04:35:35;;;;;;;27.70;14.90;;;18.70;99.90;;;;;;5052019;28;20454;-68
2022/06/24 04:38:01;;;;;;;30.67;13.10;;;18.70;99.90;;;;;;5051888;28;20052;-68
2022/06/24 04:40:27;;;;;;;29.33;14.23;;;18.80;99.90;;;;;;5051955;28;20516;-67
2022/06/24 04:42:52;;;;;;;30.85;14.63;;;18.80;99.90;;;;;;5052313;28;20029;-67
2022/06/24 04:45:18;;;;;;;38.88;14.80;;;18.80;99.90;;;;;;5051352;28;20505;-67
2022/06/24 04:47:44;;;;;;;30.15;13.27;;;18.80;99.90;;;;;;5047021;28;20347;-66
2022/06/24 04:50:09;;;;;;;31.98;14.95;;;18.80;99.90;;;;;;5052239;28;20021;-66
2022/06/24 04:52:36;;;;;;;25.25;11.30;;;18.80;99.90;;;;;;5052351;28;20080;-68
2022/06/24 04:55:03;;;;;;;25.70;12.13;;;18.80;99.90;;;;;;5051738;28;20025;-69
2022/06/24 04:57:29;;;;;;;28.40;13.60;;;18.80;99.90;;;;;;5052439;28;20500;-67
2022/06/24 04:59:54;;;;;;;27.77;12.85;;;18.80;99.90;;;;;;5051228;28;20047;-69
2022/06/24 05:02:20;;;;;;;25.65;11.48;;;18.90;99.90;;;;;;5051916;28;20458;-70
2022/06/24 05:04:45;;;;;;;28.58;10.52;;;18.90;99.90;;;;;;5052839;28;20367;-71
2022/06/24 05:07:11;;;;;;;20.38;9.75;;;18.90;99.90;;;;;;5052545;28;20100;-68
2022/06/24 05:09:37;;;;;;;23.50;10.40;;;18.80;99.90;;;;;;5052512;28;20036;-68
2022/06/24 05:12:03;;;;;;;22.98;11.75;;;18.80;99.90;;;;;;5052508;28;20128;-68
2022/06/24 05:14:29;;;;;;;26.50;12.10;;;18.80;99.90;;;;;;5052326;28;20404;-70
2022/06/24 05:16:55;;;;;;;26.92;12.35;;;18.70;99.90;;;;;;5052089;28;20096;-67
2022/06/24 05:19:21;;;;;;;31.33;15.27;;;18.80;99.90;;;;;;5051671;28;20074;-68
2022/06/24 05:21:47;;;;;;;50.92;21.88;;;18.80;99.90;;;;;;5051797;28;20116;-69
2022/06/24 05:24:12;;;;;;;41.22;20.95;;;18.80;99.90;;;;;;5048978;28;20096;-68
2022/06/24 05:26:41;;;;;;;44.95;20.27;;;18.80;99.90;;;;;;5049573;28;20041;-68
2022/06/24 05:29:07;;;;;;;54.72;23.92;;;18.80;99.90;;;;;;5051872;28;20462;-72
2022/06/24 05:31:33;;;;;;;45.85;20.85;;;18.80;99.90;;;;;;5047682;28;20469;-72
2022/06/24 05:33:58;;;;;;;37.90;18.60;;;18.80;99.90;;;;;;5051881;28;20079;-68
2022/06/24 05:36:24;;;;;;;32.20;14.73;;;18.80;99.90;;;;;;5052305;28;20028;-68
2022/06/24 05:38:50;;;;;;;28.13;14.25;;;18.80;99.90;;;;;;5050737;28;20025;-68
2022/06/24 05:41:16;;;;;;;24.80;13.27;;;18.90;99.90;;;;;;5052357;28;20021;-72
2022/06/24 05:43:44;;;;;;;24.60;11.38;;;19.00;99.90;;;;;;5051572;28;20083;-69
2022/06/24 05:46:09;;;;;;;18.67;10.40;;;19.00;99.90;;;;;;5055637;28;20098;-71
2022/06/24 05:48:35;;;;;;;18.67;9.27;;;19.10;99.90;;;;;;5055214;28;20506;-72
2022/06/24 05:51:16;;;;;;;18.15;8.80;;;19.20;99.90;;;;;;5054608;28;20021;-72
2022/06/24 05:56:28;;;;;;;15.35;7.20;;;19.40;99.90;;;;;;5053331;28;20074;-68
2022/06/24 05:58:54;;;;;;;15.90;7.90;;;19.40;99.90;;;;;;5054250;28;20052;-69
2022/06/24 06:01:20;;;;;;;13.75;7.03;;;19.40;99.90;;;;;;5054714;28;20069;-68
2022/06/24 06:03:47;;;;;;;16.00;7.32;;;19.50;99.90;;;;;;5054553;28;20056;-68
2022/06/24 06:06:13;;;;;;;17.42;7.70;;;19.50;99.90;;;;;;5055119;28;20080;-73
2022/06/24 06:08:39;;;;;;;18.45;7.80;;;19.50;99.90;;;;;;5053965;28;20108;-68
2022/06/24 06:11:22;;;;;;;19.27;8.10;;;19.50;99.90;;;;;;5054319;28;20051;-71
2022/06/24 06:13:50;;;;;;;20.55;8.15;;;19.60;99.90;;;;;;5053151;28;20371;-68
2022/06/24 06:16:16;;;;;;;14.20;6.50;;;19.60;99.90;;;;;;5053583;28;20024;-68
2022/06/24 06:18:42;;;;;;;16.98;7.38;;;19.70;99.90;;;;;;5054803;28;20033;-69
2022/06/24 06:21:09;;;;;;;16.83;6.80;;;19.70;99.90;;;;;;5054885;28;20025;-68
2022/06/24 06:23:36;;;;;;;15.93;6.43;;;19.80;99.90;;;;;;5054640;28;20100;-68
2022/06/24 06:26:05;;;;;;;12.07;6.32;;;19.90;99.90;;;;;;5054238;28;20044;-67
2022/06/24 06:28:31;;;;;;;13.00;6.43;;;19.90;99.90;;;;;;5054912;28;20029;-69
2022/06/24 06:30:57;;;;;;;20.17;7.75;;;20.10;99.90;;;;;;5053512;28;20041;-68
2022/06/24 06:33:23;;;;;;;14.88;7.15;;;20.20;99.90;;;;;;5053842;28;20466;-67
2022/06/24 06:35:48;;;;;;;16.98;7.45;;;20.20;99.90;;;;;;5054469;28;20024;-71
2022/06/24 06:38:15;;;;;;;15.60;7.50;;;20.30;99.90;;;;;;5055024;28;20021;-68
2022/06/24 06:40:41;;;;;;;19.65;9.02;;;20.20;99.90;;;;;;5054319;28;20024;-67
2022/06/24 06:43:07;;;;;;;17.30;8.15;;;20.20;99.90;;;;;;5054440;28;20032;-67
2022/06/24 06:45:33;;;;;;;18.00;8.57;;;20.20;99.90;;;;;;5054170;28;20037;-70
2022/06/24 06:47:59;;;;;;;16.98;7.80;;;20.20;99.90;;;;;;5051773;28;20370;-70
2022/06/24 06:50:25;;;;;;;17.95;9.32;;;20.20;99.90;;;;;;5051893;28;20119;-68
2022/06/24 06:52:51;;;;;;;14.60;8.25;;;20.00;99.90;;;;;;5053744;28;20024;-69
2022/06/24 06:55:17;;;;;;;19.75;9.48;;;20.00;99.90;;;;;;5054407;28;20033;-70
2022/06/24 06:57:42;;;;;;;25.27;10.60;;;19.90;99.90;;;;;;5053918;28;20017;-71
2022/06/24 07:00:09;;;;;;;20.90;10.55;;;20.00;99.90;;;;;;5053633;28;20017;-68
2022/06/24 07:02:36;;;;;;;24.05;9.52;;;20.10;99.90;;;;;;5052894;28;20021;-68
2022/06/24 07:05:02;;;;;;;23.58;11.38;;;20.10;99.90;;;;;;5052730;28;20032;-68
2022/06/24 07:07:27;;;;;;;23.08;12.10;;;20.10;99.90;;;;;;5053907;28;20128;-67
2022/06/24 07:09:54;;;;;;;22.80;10.80;;;20.10;99.90;;;;;;5053049;28;20454;-67
2022/06/24 07:12:20;;;;;;;22.65;11.18;;;20.30;99.90;;;;;;5052727;28;20382;-68
2022/06/24 07:14:46;;;;;;;20.73;10.15;;;20.40;99.90;;;;;;5053816;28;20091;-69
2022/06/24 07:17:11;;;;;;;22.85;12.30;;;20.50;99.90;;;;;;5054190;28;20032;-69
2022/06/24 07:19:37;;;;;;;18.33;10.02;;;20.60;99.90;;;;;;5054375;28;20021;-69
2022/06/24 07:22:03;;;;;;;22.90;10.85;;;20.80;99.90;;;;;;5053966;28;20032;-68
2022/06/24 07:24:29;;;;;;;25.63;10.38;;;20.80;99.90;;;;;;5045434;28;20413;-68
2022/06/24 07:26:55;;;;;;;21.70;10.38;;;21.00;99.90;;;;;;5044799;28;20051;-68
2022/06/24 07:29:20;;;;;;;14.27;7.90;;;21.10;99.90;;;;;;5054042;28;20075;-67
2022/06/24 07:31:47;;;;;;;20.67;10.50;;;21.20;99.90;;;;;;5053598;28;20127;-69
2022/06/24 07:34:14;;;;;;;21.38;10.48;;;21.20;99.90;;;;;;5054136;28;20036;-69
2022/06/24 07:36:40;;;;;;;20.63;10.07;;;21.30;99.90;;;;;;5054175;28;20159;-67
2022/06/24 07:39:06;;;;;;;16.73;7.47;;;21.50;99.90;;;;;;5053695;28;20100;-70
2022/06/24 07:41:31;;;;;;;21.67;10.15;;;21.70;99.90;;;;;;5053731;28;20025;-68
2022/06/24 07:43:57;;;;;;;19.02;8.65;;;21.80;99.90;;;;;;5053459;28;20183;-68
2022/06/24 07:46:22;;;;;;;18.33;8.43;;;21.90;99.90;;;;;;5053542;28;20041;-68
2022/06/24 07:48:48;;;;;;;19.13;8.45;;;21.90;99.90;;;;;;5054060;28;20024;-71
2022/06/24 07:51:16;;;;;;;13.18;6.85;;;22.10;99.90;;;;;;5053187;28;20036;-69
2022/06/24 07:53:43;;;;;;;12.35;5.82;;;22.20;99.90;;;;;;5054175;28;20017;-71
2022/06/24 07:58:53;;;;;;;12.32;5.63;;;22.30;99.90;;;;;;5053728;28;20064;-71
2022/06/24 08:01:18;;;;;;;12.90;6.13;;;22.40;99.90;;;;;;5042900;28;20061;-68
2022/06/24 08:03:44;;;;;;;10.35;5.70;;;22.30;99.90;;;;;;5034489;28;20424;-71
2022/06/24 08:06:10;;;;;;;10.45;5.43;;;22.30;99.90;;;;;;5041256;28;20033;-68
2022/06/24 08:08:36;;;;;;;12.45;5.80;;;22.30;99.90;;;;;;5052541;28;20029;-68
2022/06/24 08:11:02;;;;;;;13.27;6.00;;;22.20;99.90;;;;;;5053261;28;20025;-71
2022/06/24 08:13:29;;;;;;;12.38;5.75;;;22.20;99.90;;;;;;5053225;28;20033;-68
2022/06/24 08:15:55;;;;;;;9.18;5.93;;;22.30;99.90;;;;;;5053063;28;20078;-67
2022/06/24 08:18:21;;;;;;;12.38;6.90;;;22.30;99.90;;;;;;5053461;28;20028;-71
2022/06/24 08:20:46;;;;;;;16.65;7.30;;;22.30;99.90;;;;;;5052414;28;20445;-71
2022/06/24 08:23:12;;;;;;;22.77;10.48;;;22.30;99.90;;;;;;5053004;28;20029;-66
2022/06/24 08:25:37;;;;;;;12.35;6.88;;;22.40;99.90;;;;;;5051948;28;20044;-71
2022/06/24 08:28:03;;;;;;;14.60;7.82;;;22.40;99.90;;;;;;5053187;28;20013;-67
2022/06/24 08:30:29;;;;;;;13.38;8.00;;;22.30;99.90;;;;;;5052553;28;20462;-67
2022/06/24 08:32:55;;;;;;;19.77;9.10;;;22.30;99.90;;;;;;5053560;28;20073;-67
2022/06/24 08:35:20;;;;;;;17.83;10.13;;;22.40;99.90;;;;;;5051461;28;20025;-67
2022/06/24 08:37:46;;;;;;;17.73;9.95;;;22.30;99.90;;;;;;5052733;28;20025;-67
2022/06/24 08:40:12;;;;;;;17.13;10.13;;;22.30;99.90;;;;;;5053056;28;20369;-67
2022/06/24 08:42:38;;;;;;;20.23;11.05;;;22.30;99.90;;;;;;5052954;28;20024;-70
2022/06/24 08:45:05;;;;;;;18.55;11.65;;;22.40;99.90;;;;;;5052245;28;20056;-69
2022/06/24 08:47:31;;;;;;;19.38;11.43;;;22.40;99.90;;;;;;5051477;28;20028;-68
2022/06/24 08:49:56;;;;;;;22.42;12.45;;;22.40;99.90;;;;;;5047773;28;20029;-68
2022/06/24 08:52:22;;;;;;;21.30;11.65;;;22.50;99.90;;;;;;5053034;28;20427;-72
2022/06/24 08:54:49;;;;;;;18.73;11.57;;;22.70;99.90;;;;;;5053294;28;20437;-71
2022/06/24 08:57:15;;;;;;;18.58;12.02;;;22.90;99.90;;;;;;5052852;28;20025;-67
2022/06/24 08:59:42;;;;;;;20.00;11.57;;;23.10;99.90;;;;;;5052946;28;20609;-68
2022/06/24 09:02:13;;;;;;;21.40;12.38;;;23.10;99.90;;;;;;5047961;28;20027;-67
2022/06/24 09:04:42;;;;;;;22.60;12.73;;;23.20;99.90;;;;;;5050455;28;20074;-68
2022/06/24 09:07:16;;;;;;;26.00;13.60;;;23.20;99.90;;;;;;5052139;28;20029;-68
2022/06/24 09:09:55;;;;;;;23.85;12.77;;;23.20;99.90;;;;;;5053073;28;20132;-67
2022/06/24 09:12:20;;;;;;;22.13;12.43;;;23.20;99.90;;;;;;5053323;28;20017;-68
2022/06/24 09:14:49;;;;;;;20.30;11.35;;;23.20;99.90;;;;;;5052735;28;20048;-68
2022/06/24 09:17:15;;;;;;;19.05;10.73;;;23.30;99.90;;;;;;5051992;28;20025;-68
2022/06/24 09:19:40;;;;;;;21.30;12.20;;;23.20;99.90;;;;;;5058355;28;20074;-68
2022/06/24 09:22:06;;;;;;;25.38;12.70;;;23.30;99.90;;;;;;5075984;28;20020;-68
2022/06/24 09:24:45;;;;;;;22.80;13.35;;;23.30;99.90;;;;;;5067325;28;20051;-68
2022/06/24 09:27:12;;;;;;;22.52;14.32;;;23.20;99.90;;;;;;5055766;28;20101;-69
2022/06/24 09:29:46;;;;;;;19.45;11.57;;;23.30;99.90;;;;;;5056758;28;20486;-68
2022/06/24 09:32:11;;;;;;;15.82;8.10;;;23.40;99.90;;;;;;5058133;28;20048;-68
2022/06/24 09:34:37;;;;;;;17.80;8.20;;;23.50;99.90;;;;;;5077000;28;20029;-68
2022/06/24 09:37:03;;;;;;;14.98;8.02;;;23.70;99.90;;;;;;5072108;28;20035;-68
2022/06/24 09:39:32;;;;;;;14.65;8.48;;;23.80;99.90;;;;;;5056152;28;20028;-70
2022/06/24 09:41:57;;;;;;;16.80;9.80;;;23.80;99.90;;;;;;5056654;28;20017;-69
2022/06/24 09:44:26;;;;;;;17.77;9.32;;;23.80;99.90;;;;;;5056519;28;20043;-67
2022/06/24 09:47:03;;;;;;;16.10;9.65;;;24.00;99.90;;;;;;5055681;28;20040;-69
2022/06/24 09:49:29;;;;;;;15.73;8.90;;;24.20;99.90;;;;;;5050154;28;20013;-68
2022/06/24 09:51:55;;;;;;;19.45;9.77;;;24.00;99.90;;;;;;5056388;28;20351;-68
2022/06/24 09:54:22;;;;;;;16.02;8.68;;;24.00;99.90;;;;;;5051044;28;20433;-68
2022/06/24 09:56:49;;;;;;;17.65;8.90;;;23.90;99.90;;;;;;5036794;28;20013;-68
2022/06/24 10:02:04;;;;;;;14.27;7.90;;;24.20;99.90;;;;;;5065710;28;20517;-68
2022/06/24 10:04:32;;;;;;;15.95;7.72;;;24.60;99.90;;;;;;5049060;28;20017;-69
2022/06/24 10:06:57;;;;;;;12.73;6.72;;;24.80;99.90;;;;;;5047883;28;20048;-68
2022/06/24 10:09:28;;;;;;;14.50;7.53;;;25.10;99.90;;;;;;5038042;28;20375;-71
2022/06/24 10:11:57;;;;;;;12.43;7.07;;;25.50;99.90;;;;;;5049474;28;20021;-72
2022/06/24 10:14:27;;;;;;;11.70;6.70;;;25.90;99.90;;;;;;5055083;28;20099;-68
2022/06/24 10:16:53;;;;;;;11.52;6.25;;;26.20;99.90;;;;;;5036273;28;20026;-69
2022/06/24 10:19:24;;;;;;;12.38;6.40;;;26.70;99.90;;;;;;5036241;28;20040;-69
2022/06/24 10:21:50;;;;;;;13.10;6.32;;;27.10;99.60;;;;;;5040151;28;20100;-68
2022/06/24 10:24:17;;;;;;;11.15;6.13;;;27.40;98.70;;;;;;5052123;28;20051;-70
2022/06/24 10:26:47;;;;;;;11.13;6.13;;;27.50;98.10;;;;;;5047627;28;20382;-72
2022/06/24 10:29:18;;;;;;;9.65;5.53;;;28.10;97.60;;;;;;5037178;28;20064;-70
2022/06/24 10:31:53;;;;;;;12.60;5.37;;;28.90;97.20;;;;;;5036493;28;20046;-68
2022/06/24 10:34:33;;;;;;;9.77;4.70;;;29.50;95.70;;;;;;5039397;28;20285;-69
2022/06/24 10:37:08;;;;;;;9.73;4.72;;;29.90;93.80;;;;;;5053723;28;20025;-69
2022/06/24 10:39:44;;;;;;;8.07;5.05;;;29.90;93.40;;;;;;5053546;28;20028;-70
2022/06/24 10:42:11;;;;;;;9.27;4.93;;;29.70;93.40;;;;;;5042527;28;20544;-69
2022/06/24 10:44:38;;;;;;;9.75;5.28;;;29.60;93.10;;;;;;5055651;28;20017;-68
2022/06/24 10:47:12;;;;;;;10.13;4.53;;;29.50;93.80;;;;;;5055022;28;20071;-69
2022/06/24 10:49:54;;;;;;;7.20;3.28;;;29.70;93.40;;;;;;5043021;28;20025;-71
2022/06/24 10:52:34;;;;;;;9.75;4.20;;;29.90;92.20;;;;;;5034562;28;20108;-71
2022/06/24 10:55:18;;;;;;;7.22;3.90;;;29.40;92.90;;;;;;5041509;28;20029;-68
2022/06/24 10:57:49;;;;;;;9.30;4.00;;;29.50;92.60;;;;;;5045236;28;20098;-68
2022/06/24 11:00:15;;;;;;;8.50;3.92;;;29.50;92.60;;;;;;5035522;28;20028;-69
2022/06/24 11:02:41;;;;;;;8.07;3.33;;;29.60;92.90;;;;;;5034402;28;20022;-68
2022/06/24 11:05:15;;;;;;;6.57;3.95;;;29.80;92.00;;;;;;5035676;28;20021;-69
2022/06/24 11:07:49;;;;;;;8.15;4.20;;;30.10;92.00;;;;;;5035475;28;20045;-69
2022/06/24 11:10:19;;;;;;;9.35;4.35;;;30.80;91.40;;;;;;5035484;28;20029;-71
2022/06/24 11:12:53;;;;;;;9.82;2.83;;;31.40;90.90;;;;;;5035846;28;20083;-69
2022/06/24 11:15:31;;;;;;;8.90;3.80;;;32.20;88.50;;;;;;5044233;28;20033;-72
2022/06/24 11:17:56;;;;;;;8.80;4.10;;;32.60;89.10;;;;;;5037334;28;20036;-68
2022/06/24 11:20:23;;;;;;;7.07;3.53;;;33.20;86.00;;;;;;5035171;28;20025;-70
2022/06/24 11:22:48;;;;;;;9.52;3.60;;;33.20;84.40;;;;;;5035002;28;20124;-69
2022/06/24 11:25:15;;;;;;;6.45;3.22;;;33.60;83.40;;;;;;5050105;28;20124;-68
2022/06/24 11:27:41;;;;;;;7.05;3.30;;;34.10;81.70;;;;;;5054913;28;20359;-72
2022/06/24 11:30:09;;;;;;;6.72;3.47;;;34.40;81.30;;;;;;5040303;28;20029;-69
2022/06/24 11:32:55;;;;;;;7.55;3.20;;;34.90;80.30;;;;;;5051931;28;20045;-71
2022/06/24 11:35:22;;;;;;;8.55;3.35;;;34.80;78.20;;;;;;5038865;28;20021;-68
2022/06/24 11:37:48;;;;;;;9.95;3.97;;;35.20;78.20;;;;;;5034409;28;20014;-68
2022/06/24 11:40:28;;;;;;;3.70;2.45;;;35.80;77.00;;;;;;5046840;28;20399;-70
2022/06/24 11:42:55;;;;;;;5.00;2.85;;;36.30;74.20;;;;;;5053651;28;20032;-70
2022/06/24 11:45:35;;;;;;;6.13;2.60;;;36.80;73.70;;;;;;5034051;28;20032;-69
2022/06/24 11:48:01;;;;;;;4.22;2.50;;;37.10;71.50;;;;;;5040349;28;20020;-69
2022/06/24 11:50:27;;;;;;;7.10;2.90;;;37.50;70.20;;;;;;5054407;28;20021;-68
2022/06/24 11:52:55;;;;;;;10.05;3.20;;;37.90;70.30;;;;;;5054289;28;20028;-68
2022/06/24 11:55:27;;;;;;;6.80;3.17;;;38.30;69.60;;;;;;5053275;28;20021;-68
2022/06/24 11:57:57;;;;;;;11.05;3.45;;;38.60;68.30;;;;;;5053753;28;20047;-68
2022/06/24 12:00:25;;;;;;;3.53;2.28;;;38.40;67.90;;;;;;5054305;28;20041;-67
2022/06/24 12:02:52;;;;;;;4.88;2.72;;;38.00;66.80;;;;;;5053784;28;20037;-69
2022/06/24 12:05:19;;;;;;;8.93;4.18;;;37.20;67.30;;;;;;5053563;28;20063;-68
2022/06/24 12:07:45;;;;;;;9.55;2.90;;;36.50;68.70;;;;;;5053257;28;20410;-69
2022/06/24 12:10:12;;;;;;;5.50;2.72;;;35.80;69.80;;;;;;5054259;28;20017;-68
2022/06/24 12:12:55;;;;;;;6.50;2.70;;;35.20;70.50;;;;;;5053932;28;20108;-68
2022/06/24 12:15:23;;;;;;;6.05;3.40;;;34.60;70.20;;;;;;5053602;28;20435;-69
2022/06/24 12:17:55;;;;;;;6.10;2.55;;;34.40;71.00;;;;;;5053695;28;20028;-69
2022/06/24 12:20:23;;;;;;;8.45;3.10;;;34.70;70.90;;;;;;5053740;28;20029;-69
2022/06/24 12:23:13;;;;;;;6.40;2.90;;;34.80;70.60;;;;;;5053501;28;20017;-69
2022/06/24 12:25:41;;;;;;;12.85;3.72;;;34.20;71.20;;;;;;5033703;28;20037;-68
2022/06/24 12:28:33;;;;;;;6.55;2.83;;;33.60;72.40;;;;;;5034703;28;20029;-68
2022/06/24 12:31:08;;;;;;;6.45;2.97;;;33.20;73.40;;;;;;5043298;28;20041;-69
2022/06/24 12:33:54;;;;;;;9.20;2.95;;;33.20;73.20;;;;;;5043964;28;20072;-69
2022/06/24 12:36:22;;;;;;;8.63;3.72;;;34.00;72.20;;;;;;5052551;28;20043;-69
2022/06/24 12:38:47;;;;;;;9.85;3.42;;;34.50;71.10;;;;;;5043122;28;20111;-69
2022/06/24 12:41:15;;;;;;;9.10;3.13;;;34.20;70.80;;;;;;5033764;28;20045;-70
2022/06/24 12:44:01;;;;;;;5.50;2.50;;;33.80;71.60;;;;;;5033644;28;20036;-68
2022/06/24 12:46:36;;;;;;;10.98;3.53;;;33.50;71.10;;;;;;5033488;28;20033;-70
2022/06/24 12:51:59;;;;;;;9.57;3.58;;;32.90;74.30;;;;;;5033511;28;20086;-69